createdAt,value
2023-04-10T00:00:59.055Z,8.93
2023-04-10T00:03:26.092Z,8.70
2023-04-10T00:05:54.880Z,8.52
2023-04-10T00:08:24.931Z,8.23
2023-04-10T00:10:51.892Z,9.05
2023-04-10T00:13:18.694Z,8.48
2023-04-10T00:15:45.540Z,8.80
2023-04-10T00:18:12.676Z,9.02
2023-04-10T00:20:39.472Z,9.10
2023-04-10T00:23:06.554Z,9.05
2023-04-10T00:25:33.334Z,9.00
2023-04-10T00:28:00.148Z,8.85
2023-04-10T00:30:27.091Z,9.07
2023-04-10T00:32:53.966Z,9.13
2023-04-10T00:35:20.822Z,9.55
2023-04-10T00:37:47.646Z,9.30
2023-04-10T00:40:14.524Z,8.77
2023-04-10T00:42:41.753Z,8.75
2023-04-10T00:45:09.019Z,8.70
2023-04-10T00:47:36.773Z,9.00
2023-04-10T00:50:04.176Z,9.27
2023-04-10T00:52:31.155Z,8.68
2023-04-10T00:54:58.140Z,9.25
2023-04-10T00:57:24.969Z,8.93
2023-04-10T00:59:53.211Z,8.70
2023-04-10T01:02:20.531Z,8.65
2023-04-10T01:04:47.444Z,8.48
2023-04-10T01:07:19.027Z,9.07
2023-04-10T01:09:49.273Z,8.63
2023-04-10T01:12:25.833Z,7.72
2023-04-10T01:15:10.850Z,9.15
2023-04-10T01:17:44.035Z,8.27
2023-04-10T01:20:13.900Z,8.02
2023-04-10T01:23:18.127Z,9.37
2023-04-10T01:26:03.925Z,7.97
2023-04-10T01:28:53.883Z,7.97
2023-04-10T01:31:47.767Z,8.40
2023-04-10T01:34:20.717Z,8.20
2023-04-10T01:36:53.768Z,8.63
2023-04-10T01:39:21.360Z,8.52
2023-04-10T01:41:49.634Z,7.85
2023-04-10T01:44:16.566Z,8.10
2023-04-10T01:46:44.079Z,7.88
2023-04-10T01:49:11.123Z,7.93
2023-04-10T01:51:37.930Z,8.18
2023-04-10T01:54:07.023Z,8.27
2023-04-10T01:56:34.072Z,8.20
2023-04-10T01:59:00.838Z,8.10
2023-04-10T02:01:30.045Z,8.10
2023-04-10T02:03:58.807Z,8.32
2023-04-10T02:06:38.179Z,8.13
2023-04-10T02:09:36.261Z,7.70
2023-04-10T02:12:06.921Z,8.10
2023-04-10T02:14:34.946Z,7.93
2023-04-10T02:17:01.782Z,7.80
2023-04-10T02:19:28.675Z,8.25
2023-04-10T02:21:55.510Z,7.05
2023-04-10T02:24:22.338Z,7.57
2023-04-10T02:26:50.995Z,8.13
2023-04-10T02:29:18.082Z,7.47
2023-04-10T02:31:45.552Z,7.70
2023-04-10T02:34:12.593Z,8.32
2023-04-10T02:36:39.586Z,8.32
2023-04-10T02:39:06.750Z,7.90
2023-04-10T02:41:33.543Z,7.85
2023-04-10T02:44:00.431Z,8.05
2023-04-10T02:46:27.284Z,7.85
2023-04-10T02:48:54.195Z,8.90
2023-04-10T02:51:21.171Z,7.70
2023-04-10T02:53:48.529Z,8.20
2023-04-10T02:56:15.351Z,8.38
2023-04-10T02:58:45.621Z,7.80
2023-04-10T03:01:12.711Z,8.23
2023-04-10T03:03:39.727Z,8.57
2023-04-10T03:06:08.168Z,8.55
2023-04-10T03:08:35.142Z,8.60
2023-04-10T03:11:02.126Z,8.15
2023-04-10T03:13:29.053Z,8.75
2023-04-10T03:15:56.021Z,8.07
2023-04-10T03:18:22.892Z,8.60
2023-04-10T03:20:49.928Z,8.02
2023-04-10T03:23:16.865Z,8.55
2023-04-10T03:25:43.652Z,8.50
2023-04-10T03:28:10.493Z,7.93
2023-04-10T03:30:37.438Z,8.20
2023-04-10T03:33:04.309Z,7.78
2023-04-10T03:35:31.438Z,7.68
2023-04-10T03:37:58.329Z,7.85
2023-04-10T03:40:25.378Z,8.23
2023-04-10T03:42:52.193Z,7.28
2023-04-10T03:45:19.143Z,7.03
2023-04-10T03:47:45.966Z,7.55
2023-04-10T03:50:13.096Z,7.72
2023-04-10T03:52:40.408Z,7.53
2023-04-10T03:55:07.557Z,7.18
2023-04-10T03:57:34.480Z,7.20
2023-04-10T04:00:01.439Z,7.50
2023-04-10T04:02:28.412Z,6.93
2023-04-10T04:04:55.458Z,7.57
2023-04-10T04:07:22.284Z,7.18
2023-04-10T04:09:49.111Z,7.95
2023-04-10T04:12:16.091Z,7.70
2023-04-10T04:14:44.132Z,7.63
2023-04-10T04:17:11.388Z,7.50
2023-04-10T04:19:38.260Z,7.10
2023-04-10T04:22:05.128Z,7.80
2023-04-10T04:24:31.954Z,7.70
2023-04-10T04:26:58.765Z,7.93
2023-04-10T04:29:25.763Z,7.40
2023-04-10T04:31:52.822Z,7.10
2023-04-10T04:34:19.758Z,7.75
2023-04-10T04:36:46.563Z,7.32
2023-04-10T04:39:13.358Z,8.30
2023-04-10T04:41:40.243Z,7.57
2023-04-10T04:44:07.120Z,7.57
2023-04-10T04:46:33.956Z,7.45
2023-04-10T04:49:00.977Z,7.60
2023-04-10T04:51:27.768Z,7.47
2023-04-10T04:53:54.736Z,7.37
2023-04-10T04:56:21.626Z,6.90
2023-04-10T04:58:48.421Z,7.85
2023-04-10T05:01:15.917Z,7.60
2023-04-10T05:03:42.906Z,7.90
2023-04-10T05:06:10.712Z,7.20
2023-04-10T05:08:37.528Z,7.55
2023-04-10T05:11:04.466Z,7.60
2023-04-10T05:13:31.326Z,7.15
2023-04-10T05:15:58.189Z,6.90
2023-04-10T05:18:25.069Z,7.40
2023-04-10T05:20:51.970Z,7.18
2023-04-10T05:23:18.820Z,6.57
2023-04-10T05:25:45.667Z,7.05
2023-04-10T05:28:12.583Z,6.45
2023-04-10T05:30:39.496Z,6.97
2023-04-10T05:33:06.374Z,6.47
2023-04-10T05:35:33.222Z,6.95
2023-04-10T05:38:00.865Z,6.88
2023-04-10T05:40:28.625Z,6.90
2023-04-10T05:42:55.427Z,6.67
2023-04-10T05:45:22.253Z,6.78
2023-04-10T05:47:49.161Z,6.22
2023-04-10T05:50:16.076Z,6.10
2023-04-10T05:52:43.011Z,5.50
2023-04-10T05:55:10.066Z,6.53
2023-04-10T05:57:36.848Z,6.50
2023-04-10T06:00:04.387Z,5.75
2023-04-10T06:02:32.308Z,5.97
2023-04-10T06:04:59.348Z,5.93
2023-04-10T06:07:27.216Z,5.77
2023-04-10T06:09:54.076Z,6.00
2023-04-10T06:12:20.946Z,5.60
2023-04-10T06:14:47.916Z,5.97
2023-04-10T06:17:14.749Z,5.35
2023-04-10T06:19:41.590Z,5.20
2023-04-10T06:22:08.433Z,4.70
2023-04-10T06:24:35.243Z,4.63
2023-04-10T06:27:02.556Z,5.47
2023-04-10T06:29:29.375Z,4.72
2023-04-10T06:31:56.624Z,4.70
2023-04-10T06:34:23.602Z,5.10
2023-04-10T06:36:50.814Z,4.68
2023-04-10T06:39:17.997Z,4.53
2023-04-10T06:41:44.781Z,4.50
2023-04-10T06:44:11.556Z,5.00
2023-04-10T06:46:38.667Z,4.32
2023-04-10T06:49:06.330Z,4.45
2023-04-10T06:51:33.150Z,4.50
2023-04-10T06:54:00.054Z,4.70
2023-04-10T06:56:27.179Z,4.97
2023-04-10T06:58:54.231Z,5.57
2023-04-10T07:01:21.235Z,5.00
2023-04-10T07:03:48.165Z,5.22
2023-04-10T07:06:15.019Z,5.32
2023-04-10T07:08:42.042Z,5.73
2023-04-10T07:11:08.875Z,4.97
2023-04-10T07:13:35.974Z,5.32
2023-04-10T07:16:02.856Z,6.13
2023-04-10T07:18:29.687Z,5.45
2023-04-10T07:20:56.469Z,4.73
2023-04-10T07:23:23.425Z,5.20
2023-04-10T07:25:51.754Z,5.47
2023-04-10T07:28:18.600Z,5.28
2023-04-10T07:30:45.393Z,5.45
2023-04-10T07:33:12.555Z,5.40
2023-04-10T07:35:39.489Z,5.50
2023-04-10T07:38:06.589Z,5.70
2023-04-10T07:40:33.401Z,5.53
2023-04-10T07:43:00.196Z,4.75
2023-04-10T07:45:28.687Z,4.97
2023-04-10T07:47:56.091Z,4.60
2023-04-10T07:50:22.987Z,4.70
2023-04-10T07:52:49.895Z,5.03
2023-04-10T07:55:16.877Z,4.57
2023-04-10T07:57:43.671Z,4.33
2023-04-10T08:00:11.766Z,4.95
2023-04-10T08:02:41.279Z,4.88
2023-04-10T08:05:08.684Z,4.95
2023-04-10T08:07:36.535Z,4.28
2023-04-10T08:10:03.685Z,3.93
2023-04-10T08:12:32.120Z,4.43
2023-04-10T08:14:58.938Z,4.28
2023-04-10T08:17:25.961Z,4.32
2023-04-10T08:19:52.748Z,4.00
2023-04-10T08:22:19.620Z,3.60
2023-04-10T08:24:46.314Z,4.28
2023-04-10T08:27:13.894Z,3.78
2023-04-10T08:29:40.725Z,3.97
2023-04-10T08:32:07.444Z,3.95
2023-04-10T08:34:34.239Z,3.80
2023-04-10T08:37:05.355Z,3.70
2023-04-10T08:39:32.095Z,3.55
2023-04-10T08:41:58.858Z,3.20
2023-04-10T08:44:25.653Z,3.63
2023-04-10T08:46:52.596Z,3.57
2023-04-10T08:49:40.703Z,3.97
2023-04-10T08:52:11.469Z,3.97
2023-04-10T08:54:38.778Z,4.20
2023-04-10T08:59:33.854Z,3.90
2023-04-10T09:02:00.782Z,3.88
2023-04-10T09:04:27.884Z,3.38
2023-04-10T09:06:54.760Z,8.52
2023-04-10T09:09:21.622Z,6.63
2023-04-10T09:12:00.554Z,4.70
2023-04-10T09:14:29.435Z,4.45
2023-04-10T09:17:14.369Z,3.65
2023-04-10T09:19:41.256Z,3.03
2023-04-10T09:22:08.331Z,4.07
2023-04-10T09:24:42.948Z,4.03
2023-04-10T09:27:10.111Z,4.38
2023-04-10T09:29:49.271Z,4.60
2023-04-10T09:32:47.110Z,3.63
2023-04-10T09:35:14.755Z,3.35
2023-04-10T09:37:42.607Z,3.20
2023-04-10T09:40:29.698Z,3.47
2023-04-10T09:42:56.716Z,3.47
2023-04-10T09:45:23.674Z,3.22
2023-04-10T09:48:08.703Z,3.15
2023-04-10T09:50:40.366Z,3.20
2023-04-10T09:53:12.601Z,3.00
2023-04-10T09:55:39.464Z,3.88
2023-04-10T09:58:06.699Z,3.60
2023-04-10T10:00:47.571Z,3.30
2023-04-10T10:03:18.943Z,3.90
2023-04-10T10:05:47.670Z,3.47
2023-04-10T10:08:14.965Z,3.47
2023-04-10T10:10:54.735Z,3.65
2023-04-10T10:13:25.803Z,3.30
2023-04-10T10:16:41.861Z,3.03
2023-04-10T10:19:16.538Z,2.97
2023-04-10T10:21:44.723Z,3.13
2023-04-10T10:24:11.622Z,3.50
2023-04-10T10:26:39.429Z,3.63
2023-04-10T10:29:14.135Z,2.97
2023-04-10T10:31:41.192Z,3.80
2023-04-10T10:34:09.833Z,3.17
2023-04-10T10:36:37.066Z,3.28
2023-04-10T10:39:24.639Z,3.45
2023-04-10T10:42:12.993Z,3.73
2023-04-10T10:45:02.033Z,3.33
2023-04-10T10:47:30.453Z,3.83
2023-04-10T10:50:03.911Z,3.92
2023-04-10T10:52:44.073Z,3.40
2023-04-10T10:55:22.713Z,3.17
2023-04-10T10:57:53.225Z,3.78
2023-04-10T11:00:21.227Z,3.33
2023-04-10T11:03:10.917Z,2.80
2023-04-10T11:06:12.376Z,3.60
2023-04-10T11:08:44.547Z,3.63
2023-04-10T11:11:12.734Z,3.58
2023-04-10T11:13:41.044Z,3.58
2023-04-10T11:16:10.783Z,3.28
2023-04-10T11:18:59.371Z,3.28
2023-04-10T11:21:33.076Z,3.20
2023-04-10T11:24:00.617Z,3.78
2023-04-10T11:26:40.449Z,3.53
2023-04-10T11:29:16.010Z,3.45
2023-04-10T11:31:44.324Z,3.40
2023-04-10T11:34:11.404Z,3.83
2023-04-10T11:36:39.768Z,3.22
2023-04-10T11:39:13.175Z,4.03
2023-04-10T11:41:41.826Z,3.90
2023-04-10T11:44:10.650Z,3.67
2023-04-10T11:46:41.760Z,4.70
2023-04-10T11:49:09.984Z,3.83
2023-04-10T11:51:40.698Z,4.25
2023-04-10T11:54:17.636Z,3.35
2023-04-10T11:56:46.323Z,4.20
2023-04-10T11:59:19.709Z,4.20
2023-04-10T12:01:47.390Z,3.30
2023-04-10T12:04:18.220Z,3.15
2023-04-10T12:06:49.238Z,3.42
2023-04-10T12:09:17.458Z,3.95
2023-04-10T12:11:59.597Z,3.53
2023-04-10T12:14:37.057Z,3.60
2023-04-10T12:17:04.770Z,3.83
2023-04-10T12:19:31.740Z,4.00
2023-04-10T12:21:59.146Z,2.90
2023-04-10T12:24:53.815Z,4.03
2023-04-10T12:27:24.239Z,3.95
2023-04-10T12:29:52.421Z,3.78
2023-04-10T12:32:19.495Z,3.33
2023-04-10T12:34:53.111Z,3.60
2023-04-10T12:37:20.738Z,3.47
2023-04-10T12:39:47.612Z,3.55
2023-04-10T12:42:19.704Z,3.28
2023-04-10T12:44:53.069Z,3.65
2023-04-10T12:47:19.971Z,3.63
2023-04-10T12:50:06.356Z,3.43
2023-04-10T12:52:33.293Z,3.80
2023-04-10T12:55:19.956Z,3.67
2023-04-10T12:57:48.130Z,3.60
2023-04-10T13:00:16.497Z,3.83
2023-04-10T13:02:43.677Z,4.70
2023-04-10T13:05:11.266Z,4.43
2023-04-10T13:07:38.384Z,3.65
2023-04-10T13:10:06.120Z,3.60
2023-04-10T13:12:34.892Z,3.45
2023-04-10T13:15:01.956Z,3.80
2023-04-10T13:17:28.999Z,3.78
2023-04-10T13:19:55.858Z,3.30
2023-04-10T13:22:22.779Z,3.45
2023-04-10T13:24:49.685Z,3.10
2023-04-10T13:27:16.513Z,3.67
2023-04-10T13:29:43.435Z,3.08
2023-04-10T13:32:10.854Z,3.00
2023-04-10T13:34:37.815Z,3.80
2023-04-10T13:37:04.647Z,3.17
2023-04-10T13:39:31.751Z,3.50
2023-04-10T13:41:59.163Z,3.25
2023-04-10T13:44:26.107Z,2.85
2023-04-10T13:46:53.265Z,3.08
2023-04-10T13:49:22.323Z,3.50
2023-04-10T13:51:49.270Z,3.60
2023-04-10T13:54:20.236Z,3.72
2023-04-10T13:56:47.177Z,3.47
2023-04-10T13:59:14.095Z,3.67
2023-04-10T14:01:41.139Z,3.25
2023-04-10T14:04:08.404Z,3.30
2023-04-10T14:06:35.557Z,3.42
2023-04-10T14:09:02.460Z,2.80
2023-04-10T14:11:29.400Z,3.42
2023-04-10T14:13:56.315Z,3.53
2023-04-10T14:16:23.194Z,3.00
2023-04-10T14:18:50.097Z,3.05
2023-04-10T14:21:18.686Z,3.17
2023-04-10T14:23:47.830Z,3.35
2023-04-10T14:26:14.660Z,3.92
2023-04-10T14:28:42.517Z,3.63
2023-04-10T14:31:09.356Z,2.90
2023-04-10T14:33:36.219Z,2.88
2023-04-10T14:36:03.211Z,3.25
2023-04-10T14:38:30.240Z,3.40
2023-04-10T14:40:57.089Z,3.73
2023-04-10T14:43:23.914Z,3.00
2023-04-10T14:45:50.951Z,3.35
2023-04-10T14:48:19.950Z,3.90
2023-04-10T14:50:48.435Z,4.40
2023-04-10T14:53:15.742Z,4.93
2023-04-10T14:55:42.604Z,5.72
2023-04-10T14:58:11.231Z,4.38
2023-04-10T15:00:38.079Z,3.55
2023-04-10T15:03:06.687Z,3.92
2023-04-10T15:05:33.717Z,3.87
2023-04-10T15:08:00.672Z,3.25
2023-04-10T15:10:30.800Z,4.05
2023-04-10T15:12:57.716Z,4.38
2023-04-10T15:15:24.593Z,4.78
2023-04-10T15:17:51.462Z,4.50
2023-04-10T15:20:18.320Z,4.28
2023-04-10T15:22:45.590Z,3.85
2023-04-10T15:25:12.521Z,3.72
2023-04-10T15:27:39.550Z,3.67
2023-04-10T15:30:07.169Z,4.03
2023-04-10T15:32:34.177Z,4.05
2023-04-10T15:35:01.059Z,4.88
2023-04-10T15:37:27.906Z,4.30
2023-04-10T15:39:55.166Z,3.95
2023-04-10T15:42:22.022Z,3.93
2023-04-10T15:44:49.326Z,3.67
2023-04-10T15:47:16.309Z,4.03
2023-04-10T15:49:43.171Z,3.58
2023-04-10T15:52:09.935Z,3.20
2023-04-10T15:54:38.747Z,3.10
2023-04-10T15:57:05.606Z,3.97
2023-04-10T15:59:32.931Z,3.42
2023-04-10T16:01:59.829Z,4.05
2023-04-10T16:04:26.817Z,3.72
2023-04-10T16:06:53.781Z,3.53
2023-04-10T16:09:26.042Z,3.85
2023-04-10T16:11:53.844Z,3.90
2023-04-10T16:14:20.825Z,4.10
2023-04-10T16:16:47.725Z,3.65
2023-04-10T16:19:14.507Z,3.23
2023-04-10T16:21:42.790Z,3.58
2023-04-10T16:24:09.638Z,3.78
2023-04-10T16:26:36.476Z,3.58
2023-04-10T16:29:03.348Z,3.40
2023-04-10T16:31:30.288Z,3.53
2023-04-10T16:33:57.270Z,3.60
2023-04-10T16:36:24.128Z,3.80
2023-04-10T16:38:51.033Z,3.80
2023-04-10T16:41:18.644Z,3.95
2023-04-10T16:43:45.548Z,4.03
2023-04-10T16:46:12.478Z,3.97
2023-04-10T16:48:39.336Z,4.53
2023-04-10T16:51:07.101Z,4.32
2023-04-10T16:53:36.084Z,4.00
2023-04-10T16:56:05.044Z,4.63
2023-04-10T16:58:33.751Z,4.43
2023-04-10T17:01:00.845Z,4.63
2023-04-10T17:03:27.874Z,4.68
2023-04-10T17:05:54.802Z,4.65
2023-04-10T17:08:21.671Z,4.40
2023-04-10T17:10:48.516Z,4.30
2023-04-10T17:13:15.546Z,4.50
2023-04-10T17:15:42.351Z,4.60
2023-04-10T17:18:09.244Z,4.70
2023-04-10T17:20:37.195Z,5.60
2023-04-10T17:23:04.098Z,4.72
2023-04-10T17:25:31.108Z,4.75
2023-04-10T17:27:57.985Z,4.70
2023-04-10T17:30:24.828Z,4.80
2023-04-10T17:32:51.814Z,4.40
2023-04-10T17:35:18.865Z,4.47
2023-04-10T17:37:45.650Z,4.97
2023-04-10T17:40:12.891Z,4.85
2023-04-10T17:42:39.745Z,4.72
2023-04-10T17:45:07.196Z,5.03
2023-04-10T17:47:35.168Z,4.78
2023-04-10T17:50:02.906Z,5.00
2023-04-10T17:52:29.735Z,5.07
2023-04-10T17:54:56.658Z,4.53
2023-04-10T17:57:23.521Z,4.73
2023-04-10T17:59:50.308Z,5.03
2023-04-10T18:02:17.385Z,5.18
2023-04-10T18:04:44.306Z,5.50
2023-04-10T18:07:11.325Z,5.20
2023-04-10T18:09:38.169Z,5.60
2023-04-10T18:12:04.982Z,5.70
2023-04-10T18:14:31.795Z,5.22
2023-04-10T18:16:58.633Z,5.57
2023-04-10T18:19:25.711Z,5.88
2023-04-10T18:21:52.484Z,6.60
2023-04-10T18:24:19.339Z,6.00
2023-04-10T18:26:46.404Z,6.22
2023-04-10T18:29:13.185Z,6.78
2023-04-10T18:31:40.046Z,6.43
2023-04-10T18:34:08.611Z,6.83
2023-04-10T18:36:35.781Z,7.10
2023-04-10T18:39:02.647Z,7.13
2023-04-10T18:41:29.426Z,7.03
2023-04-10T18:44:04.273Z,7.68
2023-04-10T18:46:32.867Z,7.67
2023-04-10T18:49:01.481Z,7.63
2023-04-10T18:51:28.558Z,7.65
2023-04-10T18:53:55.895Z,8.02
2023-04-10T18:56:22.901Z,8.48
2023-04-10T18:58:50.331Z,8.80
2023-04-10T19:01:20.341Z,7.93
2023-04-10T19:03:50.006Z,8.25
2023-04-10T19:06:23.845Z,8.43
2023-04-10T19:08:51.270Z,8.57
2023-04-10T19:11:18.773Z,8.27
2023-04-10T19:13:45.634Z,8.00
2023-04-10T19:16:14.733Z,8.60
2023-04-10T19:18:41.758Z,8.35
2023-04-10T19:21:08.607Z,8.98
2023-04-10T19:23:35.479Z,8.33
2023-04-10T19:26:02.285Z,8.68
2023-04-10T19:28:29.582Z,9.23
2023-04-10T19:30:56.439Z,8.48
2023-04-10T19:33:23.382Z,8.48
2023-04-10T19:35:50.206Z,9.10
2023-04-10T19:38:17.350Z,9.10
2023-04-10T19:40:47.500Z,8.77
2023-04-10T19:43:14.403Z,8.75
2023-04-10T19:45:41.323Z,9.32
2023-04-10T19:48:09.843Z,9.57
2023-04-10T19:50:36.711Z,9.20
2023-04-10T19:53:04.286Z,9.55
2023-04-10T19:55:31.761Z,9.27
2023-04-10T19:57:58.714Z,9.52
2023-04-10T20:00:25.707Z,9.73
2023-04-10T20:02:52.907Z,9.82
2023-04-10T20:05:20.330Z,9.65
2023-04-10T20:07:47.194Z,9.65
2023-04-10T20:10:14.076Z,9.45
2023-04-10T20:12:41.030Z,10.67
2023-04-10T20:15:09.180Z,10.68
2023-04-10T20:17:36.144Z,10.55
2023-04-10T20:20:03.604Z,9.88
2023-04-10T20:22:30.490Z,11.02
2023-04-10T20:24:57.305Z,11.13
2023-04-10T20:27:24.770Z,11.32
2023-04-10T20:29:51.701Z,11.35
2023-04-10T20:32:18.553Z,12.00
2023-04-10T20:34:45.356Z,11.68
2023-04-10T20:37:13.722Z,11.87
2023-04-10T20:39:40.603Z,12.23
2023-04-10T20:42:07.494Z,11.65
2023-04-10T20:44:37.945Z,11.70
2023-04-10T20:47:06.428Z,11.25
2023-04-10T20:49:33.414Z,11.90
2023-04-10T20:52:00.379Z,11.68
2023-04-10T20:54:27.370Z,11.55
2023-04-10T20:56:54.203Z,12.82
2023-04-10T20:59:21.220Z,11.52
2023-04-10T21:01:48.127Z,12.93
2023-04-10T21:04:15.093Z,12.48
2023-04-10T21:06:41.952Z,11.80
2023-04-10T21:09:08.889Z,13.07
2023-04-10T21:11:35.774Z,12.10
2023-04-10T21:14:02.589Z,11.77
2023-04-10T21:16:31.273Z,13.50
2023-04-10T21:18:58.364Z,12.75
2023-04-10T21:21:25.975Z,13.25
2023-04-10T21:23:52.947Z,12.65
2023-04-10T21:26:19.799Z,13.13
2023-04-10T21:28:46.662Z,12.52
2023-04-10T21:31:14.468Z,13.50
2023-04-10T21:33:41.351Z,12.48
2023-04-10T21:36:08.429Z,12.60
2023-04-10T21:38:35.492Z,12.77
2023-04-10T21:41:02.307Z,13.93
2023-04-10T21:43:29.222Z,13.38
2023-04-10T21:45:56.232Z,13.30
2023-04-10T21:48:23.240Z,14.20
2023-04-10T21:50:51.092Z,13.23
2023-04-10T21:53:17.946Z,12.93
2023-04-10T21:55:44.818Z,12.88
2023-04-10T21:58:11.820Z,13.43
2023-04-10T22:00:38.603Z,13.48
2023-04-10T22:03:07.540Z,13.23
2023-04-10T22:05:34.533Z,12.73
2023-04-10T22:08:01.297Z,12.57
2023-04-10T22:10:28.120Z,13.82
2023-04-10T22:12:54.982Z,12.93
2023-04-10T22:15:21.930Z,13.43
2023-04-10T22:17:48.729Z,13.48
2023-04-10T22:20:16.337Z,13.00
2023-04-10T22:22:43.155Z,13.55
2023-04-10T22:25:10.004Z,13.20
2023-04-10T22:27:36.823Z,14.00
2023-04-10T22:30:04.683Z,13.38
2023-04-10T22:32:32.221Z,13.82
2023-04-10T22:34:59.908Z,13.68
2023-04-10T22:37:27.553Z,12.70
2023-04-10T22:39:56.378Z,12.53
2023-04-10T22:42:23.860Z,13.77
2023-04-10T22:44:50.778Z,13.23
2023-04-10T22:47:18.009Z,14.02
2023-04-10T22:49:44.991Z,12.80
2023-04-10T22:52:16.262Z,13.23
2023-04-10T22:54:43.158Z,13.63
2023-04-10T22:57:10.029Z,13.32
2023-04-10T22:59:37.376Z,13.45
2023-04-10T23:02:04.392Z,12.48
2023-04-10T23:04:31.583Z,13.00
2023-04-10T23:06:58.555Z,12.82
2023-04-10T23:09:25.789Z,12.38
2023-04-10T23:11:52.620Z,12.40
2023-04-10T23:14:19.992Z,11.57
2023-04-10T23:16:46.942Z,12.57
2023-04-10T23:19:13.841Z,12.32
2023-04-10T23:21:40.733Z,11.43
2023-04-10T23:24:07.655Z,12.23
2023-04-10T23:26:34.486Z,11.77
2023-04-10T23:29:01.270Z,12.63
2023-04-10T23:31:28.193Z,12.80
2023-04-10T23:33:56.272Z,10.95
2023-04-10T23:36:23.139Z,12.50
2023-04-10T23:38:49.963Z,12.30
2023-04-10T23:41:16.789Z,12.47
2023-04-10T23:43:44.084Z,12.07
2023-04-10T23:46:10.927Z,11.18
2023-04-10T23:48:37.815Z,12.48
2023-04-10T23:51:08.776Z,11.65
2023-04-10T23:53:35.626Z,11.87
2023-04-10T23:56:02.569Z,12.25
2023-04-10T23:58:29.438Z,12.23
